createdAt,value
2015-12-13T00:00:10.716Z,99.9
2015-12-13T00:01:10.657Z,99.9
2015-12-13T00:02:09.878Z,99.9
2015-12-13T00:03:10.788Z,99.9
2015-12-13T00:04:10.509Z,99.9
2015-12-13T00:05:10.449Z,99.9
2015-12-13T00:06:10.389Z,99.9
2015-12-13T00:07:10.330Z,99.9
2015-12-13T00:08:10.286Z,99.9
2015-12-13T00:09:10.225Z,99.9
2015-12-13T00:10:10.166Z,99.9
2015-12-13T00:11:10.106Z,99.9
2015-12-13T00:12:10.062Z,99.9
2015-12-13T00:13:10.002Z,99.9
2015-12-13T00:14:09.944Z,99.9
2015-12-13T00:15:09.899Z,99.9
2015-12-13T00:16:09.838Z,99.9
2015-12-13T00:17:09.795Z,99.9
2015-12-13T00:18:09.736Z,99.9
2015-12-13T00:19:09.691Z,99.9
2015-12-13T00:20:09.616Z,99.9
2015-12-13T00:21:09.572Z,99.9
2015-12-13T00:22:09.511Z,99.9
2015-12-13T00:23:09.449Z,99.9
2015-12-13T00:24:09.404Z,99.9
2015-12-13T00:25:09.345Z,99.9
2015-12-13T00:26:09.285Z,99.9
2015-12-13T00:27:09.241Z,99.9
2015-12-13T00:28:09.182Z,99.9
2015-12-13T00:29:08.387Z,99.9
2015-12-13T00:30:09.077Z,99.9
2015-12-13T00:31:09.018Z,99.7
2015-12-13T00:32:08.974Z,99.5
2015-12-13T00:33:08.913Z,99.3
2015-12-13T00:34:09.088Z,99.5
2015-12-13T00:35:08.811Z,99.4
2015-12-13T00:36:08.751Z,99.4
2015-12-13T00:37:08.691Z,99.3
2015-12-13T00:38:08.647Z,99.2
2015-12-13T00:39:08.571Z,99.4
2015-12-13T00:40:08.543Z,99.7
2015-12-13T00:41:08.467Z,99.7
2015-12-13T00:42:08.424Z,99.5
2015-12-13T00:43:08.598Z,99.7
2015-12-13T00:44:08.304Z,99.6
2015-12-13T00:45:08.259Z,99.4
2015-12-13T00:46:08.199Z,98.9
2015-12-13T00:47:08.139Z,99.1
2015-12-13T00:48:08.080Z,98.7
2015-12-13T00:49:08.036Z,98.7
2015-12-13T00:50:07.976Z,98.7
2015-12-13T00:51:07.932Z,98.7
2015-12-13T00:52:07.873Z,98.8
2015-12-13T00:53:07.812Z,98.6
2015-12-13T00:54:07.753Z,97.9
2015-12-13T00:55:07.709Z,98.4
2015-12-13T00:56:07.649Z,98.3
2015-12-13T00:57:07.604Z,98.2
2015-12-13T00:58:07.545Z,98.2
2015-12-13T00:59:07.485Z,98.1
2015-12-13T01:00:07.441Z,97.5
2015-12-13T01:01:07.382Z,97.3
2015-12-13T01:02:07.322Z,97.2
2015-12-13T01:03:07.263Z,96.8
2015-12-13T01:04:07.203Z,96.8
2015-12-13T01:05:07.159Z,96.5
2015-12-13T01:06:07.114Z,95.9
2015-12-13T01:07:07.054Z,96
2015-12-13T01:08:06.995Z,95.9
2015-12-13T01:09:06.950Z,95.3
2015-12-13T01:10:06.887Z,95.6
2015-12-13T01:11:06.828Z,95.7
2015-12-13T01:12:07.065Z,95
2015-12-13T01:13:06.724Z,94.8
2015-12-13T01:14:06.680Z,94.9
2015-12-13T01:15:06.620Z,95.1
2015-12-13T01:16:06.561Z,95.2
2015-12-13T01:17:06.500Z,95.7
2015-12-13T01:18:06.442Z,95.3
2015-12-13T01:19:06.381Z,95.3
2015-12-13T01:20:06.353Z,95.1
2015-12-13T01:21:06.289Z,95.2
2015-12-13T01:22:34.388Z,95
2015-12-13T01:23:06.185Z,95.1
2015-12-13T01:24:06.127Z,95
2015-12-13T01:25:06.066Z,94.1
2015-12-13T01:26:06.241Z,94.4
2015-12-13T01:27:05.962Z,94.4
2015-12-13T01:28:05.902Z,94
2015-12-13T01:29:05.843Z,94.1
2015-12-13T01:30:05.799Z,94.6
2015-12-13T01:31:05.738Z,93.3
2015-12-13T01:32:05.695Z,93.9
2015-12-13T01:33:05.635Z,93.4
2015-12-13T01:34:05.591Z,92.9
2015-12-13T01:35:05.515Z,93.1
2015-12-13T01:36:05.456Z,93.4
2015-12-13T01:37:05.412Z,93.6
2015-12-13T01:38:05.367Z,92.7
2015-12-13T01:39:05.324Z,91.1
2015-12-13T01:40:05.249Z,91.3
2015-12-13T01:41:05.188Z,91.6
2015-12-13T01:42:05.144Z,91.6
2015-12-13T01:43:05.101Z,91.8
2015-12-13T01:44:05.040Z,91.1
2015-12-13T01:45:04.965Z,90.6
2015-12-13T01:46:04.921Z,90.4
2015-12-13T01:47:04.859Z,90.3
2015-12-13T01:48:04.815Z,90.4
2015-12-13T01:49:04.754Z,90.1
2015-12-13T01:50:04.695Z,90.5
2015-12-13T01:51:04.651Z,90.4
2015-12-13T01:52:04.590Z,90.4
2015-12-13T01:53:04.531Z,90.6
2015-12-13T01:54:04.487Z,90.5
2015-12-13T01:55:04.427Z,90.6
2015-12-13T01:56:04.367Z,90.4
2015-12-13T01:57:04.323Z,90.4
2015-12-13T01:58:04.264Z,90.4
2015-12-13T01:59:04.203Z,90.7
2015-12-13T02:00:04.175Z,90.6
2015-12-13T02:01:04.334Z,90.7
2015-12-13T02:02:04.056Z,90.6
2015-12-13T02:03:03.981Z,90.6
2015-12-13T02:04:03.951Z,90.2
2015-12-13T02:05:03.892Z,90.4
2015-12-13T02:06:03.817Z,90.5
2015-12-13T02:07:03.757Z,91
2015-12-13T02:08:03.542Z,90.4
2015-12-13T02:09:03.653Z,90.8
2015-12-13T02:10:03.592Z,90.5
2015-12-13T02:11:03.550Z,90.8
2015-12-13T02:12:03.505Z,90.2
2015-12-13T02:13:03.430Z,90
2015-12-13T02:14:03.386Z,90.6
2015-12-13T02:15:03.325Z,91.2
2015-12-13T02:16:03.266Z,91.4
2015-12-13T02:17:03.456Z,91.6
2015-12-13T02:18:03.162Z,91.6
2015-12-13T02:19:03.118Z,91.8
2015-12-13T02:20:03.058Z,92.3
2015-12-13T02:21:02.999Z,91.8
2015-12-13T02:22:02.939Z,91.5
2015-12-13T02:23:02.879Z,91.4
2015-12-13T02:24:02.836Z,91.8
2015-12-13T02:25:02.776Z,91.7
2015-12-13T02:26:02.731Z,91.8
2015-12-13T02:27:02.672Z,91.2
2015-12-13T02:28:02.612Z,91.2
2015-12-13T02:29:02.568Z,91.5
2015-12-13T02:30:02.506Z,90.8
2015-12-13T02:31:02.461Z,91.4
2015-12-13T02:32:02.401Z,91.5
2015-12-13T02:33:02.357Z,91.6
2015-12-13T02:34:02.297Z,91.8
2015-12-13T02:35:02.238Z,91.9
2015-12-13T02:36:02.193Z,91.7
2015-12-13T02:37:02.119Z,91.8
2015-12-13T02:38:02.308Z,91.4
2015-12-13T02:39:02.030Z,90.9
2015-12-13T02:40:01.970Z,90.3
2015-12-13T02:41:01.910Z,90.3
2015-12-13T02:42:01.866Z,90.7
2015-12-13T02:43:01.807Z,90.5
2015-12-13T02:44:01.763Z,90.5
2015-12-13T02:45:01.703Z,88.5
2015-12-13T02:46:01.643Z,88
2015-12-13T02:47:01.599Z,88.9
2015-12-13T02:48:01.539Z,88.8
2015-12-13T02:49:01.480Z,88.5
2015-12-13T02:50:01.435Z,88.8
2015-12-13T02:51:01.375Z,89.3
2015-12-13T02:52:01.331Z,89.2
2015-12-13T02:53:01.256Z,89.4
2015-12-13T02:54:01.212Z,89.4
2015-12-13T02:55:01.184Z,89.6
2015-12-13T02:56:01.108Z,89.5
2015-12-13T02:57:01.049Z,88.9
2015-12-13T02:58:00.989Z,88.8
2015-12-13T02:59:01.179Z,88.6
2015-12-13T03:00:01.119Z,88.8
2015-12-13T03:01:00.841Z,88.4
2015-12-13T03:02:00.797Z,88.4
2015-12-13T03:03:00.721Z,88.8
2015-12-13T03:04:00.677Z,88.7
2015-12-13T03:05:00.617Z,89.1
2015-12-13T03:06:00.558Z,89.3
2015-12-13T03:07:00.513Z,89.5
2015-12-13T03:08:00.451Z,89.9
2015-12-13T03:09:00.391Z,89.4
2015-12-13T03:10:00.331Z,89.3
2015-12-13T03:11:00.302Z,89.4
2015-12-13T03:12:00.243Z,88.9
2015-12-13T03:13:00.276Z,89.2
2015-12-13T03:14:00.123Z,89.5
2015-12-13T03:15:00.079Z,88.7
2015-12-13T03:16:00.035Z,88.9
2015-12-13T03:16:59.960Z,89
2015-12-13T03:17:59.900Z,89.5
2015-12-13T03:18:59.856Z,89.5
2015-12-13T03:19:59.813Z,89.6
2015-12-13T03:20:59.752Z,90.3
2015-12-13T03:21:59.693Z,89.4
2015-12-13T03:22:59.852Z,89.7
2015-12-13T03:23:59.588Z,89.2
2015-12-13T03:24:59.544Z,89.6
2015-12-13T03:25:59.485Z,89.4
2015-12-13T03:26:59.441Z,89.1
2015-12-13T03:27:59.365Z,88.9
2015-12-13T03:28:59.321Z,89.6
2015-12-13T03:29:59.480Z,89.7
2015-12-13T03:30:59.217Z,89.1
2015-12-13T03:31:59.157Z,88.3
2015-12-13T03:32:59.099Z,88.7
2015-12-13T03:33:58.304Z,88.4
2015-12-13T03:34:58.993Z,88.5
2015-12-13T03:35:59.169Z,88.7
2015-12-13T03:36:58.890Z,89.1
2015-12-13T03:37:58.830Z,89.7
2015-12-13T03:38:58.786Z,89.8
2015-12-13T03:39:58.743Z,89.7
2015-12-13T03:40:58.683Z,89.5
2015-12-13T03:41:58.623Z,89.9
2015-12-13T03:42:58.563Z,89.9
2015-12-13T03:43:58.503Z,89.7
2015-12-13T03:44:58.444Z,89.9
2015-12-13T03:45:58.399Z,89.5
2015-12-13T03:46:58.574Z,90.1
2015-12-13T03:47:58.293Z,90.5
2015-12-13T03:48:58.232Z,90.4
2015-12-13T03:49:58.173Z,90.3
2015-12-13T03:50:58.145Z,90.4
2015-12-13T03:51:58.303Z,89.5
2015-12-13T03:52:58.010Z,89.5
2015-12-13T03:53:57.965Z,89.5
2015-12-13T03:54:57.906Z,89.3
2015-12-13T03:55:57.862Z,89.2
2015-12-13T03:56:57.818Z,88.7
2015-12-13T03:57:57.757Z,88.8
2015-12-13T03:58:57.698Z,88.7
2015-12-13T03:59:57.638Z,88.5
2015-12-13T04:00:57.594Z,88.5
2015-12-13T04:01:57.534Z,88.9
2015-12-13T04:02:57.725Z,89.1
2015-12-13T04:03:57.431Z,88.8
2015-12-13T04:04:57.387Z,88.8
2015-12-13T04:05:57.312Z,89.1
2015-12-13T04:06:57.267Z,88.9
2015-12-13T04:07:57.207Z,88.9
2015-12-13T04:08:57.163Z,88.9
2015-12-13T04:09:57.103Z,88.9
2015-12-13T04:10:57.043Z,88.7
2015-12-13T04:11:56.999Z,87.9
2015-12-13T04:12:56.940Z,88
2015-12-13T04:13:56.927Z,88
2015-12-13T04:14:56.836Z,88.4
2015-12-13T04:15:56.776Z,88.3
2015-12-13T04:16:56.810Z,88.7
2015-12-13T04:17:56.673Z,88.9
2015-12-13T04:18:56.612Z,89.2
2015-12-13T04:19:56.553Z,89.2
2015-12-13T04:20:56.509Z,89.3
2015-12-13T04:21:56.448Z,89.5
2015-12-13T04:22:56.436Z,89.6
2015-12-13T04:23:56.361Z,89.6
2015-12-13T04:24:56.285Z,89.4
2015-12-13T04:25:56.242Z,89.4
2015-12-13T04:26:56.181Z,89.2
2015-12-13T04:27:56.137Z,88.8
2015-12-13T04:28:56.075Z,88.9
2015-12-13T04:29:56.031Z,89.3
2015-12-13T04:30:55.955Z,89.3
2015-12-13T04:31:55.911Z,89.1
2015-12-13T04:32:55.851Z,89.3
2015-12-13T04:33:55.807Z,89.2
2015-12-13T04:34:55.747Z,89.6
2015-12-13T04:35:55.703Z,89.9
2015-12-13T04:36:55.643Z,90
2015-12-13T04:37:55.819Z,90
2015-12-13T04:38:55.524Z,89.9
2015-12-13T04:39:55.480Z,90.2
2015-12-13T04:40:55.420Z,90
2015-12-13T04:41:55.361Z,90
2015-12-13T04:42:55.316Z,90.3
2015-12-13T04:43:55.256Z,90.6
2015-12-13T04:44:55.213Z,90.7
2015-12-13T04:45:55.153Z,90.8
2015-12-13T04:46:55.109Z,90.9
2015-12-13T04:47:55.033Z,91.3
2015-12-13T04:48:54.989Z,91.5
2015-12-13T04:49:54.930Z,91.3
2015-12-13T04:50:54.885Z,91.4
2015-12-13T04:51:54.825Z,91.4
2015-12-13T04:52:54.781Z,91.1
2015-12-13T04:53:54.722Z,91.1
2015-12-13T04:54:54.662Z,91.4
2015-12-13T04:55:54.618Z,91.4
2015-12-13T04:56:54.558Z,91.5
2015-12-13T04:57:54.499Z,91.2
2015-12-13T04:58:54.455Z,91.3
2015-12-13T04:59:54.394Z,91.6
2015-12-13T05:00:54.350Z,91.5
2015-12-13T05:01:54.291Z,91.6
2015-12-13T05:02:54.231Z,91.6
2015-12-13T05:03:54.015Z,91.6
2015-12-13T05:04:54.127Z,91.9
2015-12-13T05:05:54.066Z,91.8
2015-12-13T05:06:54.008Z,91.6
2015-12-13T05:07:53.979Z,91.4
2015-12-13T05:08:53.901Z,91.1
2015-12-13T05:09:53.857Z,91.6
2015-12-13T05:10:53.797Z,91.8
2015-12-13T05:11:53.752Z,92
2015-12-13T05:12:53.677Z,91.8
2015-12-13T05:13:53.632Z,91.8
2015-12-13T05:14:53.573Z,91.7
2015-12-13T05:15:53.530Z,91.7
2015-12-13T05:16:53.469Z,92.1
2015-12-13T05:17:53.410Z,92.4
2015-12-13T05:18:53.382Z,92.7
2015-12-13T05:19:53.306Z,92.2
2015-12-13T05:20:53.247Z,92.4
2015-12-13T05:21:53.233Z,92
2015-12-13T05:22:53.143Z,91.9
2015-12-13T05:23:53.083Z,92.3
2015-12-13T05:24:53.038Z,92
2015-12-13T05:25:52.979Z,91.8
2015-12-13T05:26:52.966Z,92.3
2015-12-13T05:27:53.110Z,92.4
2015-12-13T05:28:52.815Z,92.4
2015-12-13T05:29:52.755Z,92.5
2015-12-13T05:30:52.712Z,92.7
2015-12-13T05:31:52.652Z,93.1
2015-12-13T05:32:52.592Z,93.3
2015-12-13T05:33:52.548Z,93.4
2015-12-13T05:34:52.488Z,93.8
2015-12-13T05:35:52.443Z,93.8
2015-12-13T05:36:52.400Z,93.9
2015-12-13T05:37:52.340Z,94.4
2015-12-13T05:38:52.280Z,94.4
2015-12-13T05:39:52.455Z,94.4
2015-12-13T05:40:52.176Z,94.4
2015-12-13T05:41:52.118Z,94.3
2015-12-13T05:42:52.073Z,94.7
2015-12-13T05:43:52.013Z,94.9
2015-12-13T05:44:51.953Z,95
2015-12-13T05:45:51.159Z,95.1
2015-12-13T05:46:51.849Z,94.9
2015-12-13T05:47:51.805Z,95
2015-12-13T05:48:51.774Z,94.6
2015-12-13T05:49:51.683Z,95.1
2015-12-13T05:50:51.624Z,94.9
2015-12-13T05:51:51.579Z,94.9
2015-12-13T05:52:51.550Z,94.6
2015-12-13T05:53:51.475Z,95
2015-12-13T05:54:51.416Z,95.4
2015-12-13T05:55:51.356Z,95.9
2015-12-13T05:56:51.312Z,96.1
2015-12-13T05:57:51.251Z,96.3
2015-12-13T05:58:51.208Z,96.7
2015-12-13T05:59:51.148Z,97.1
2015-12-13T06:00:51.088Z,97.6
2015-12-13T06:01:51.044Z,95.6
2015-12-13T06:02:50.984Z,92.2
2015-12-13T06:03:50.925Z,93
2015-12-13T06:04:50.881Z,93.3
2015-12-13T06:05:50.821Z,92.4
2015-12-13T06:06:50.776Z,91.2
2015-12-13T06:07:50.732Z,91.6
2015-12-13T06:08:50.657Z,91.9
2015-12-13T06:09:50.597Z,91.8
2015-12-13T06:10:50.554Z,89.5
2015-12-13T06:11:50.493Z,89.6
2015-12-13T06:12:50.434Z,88.5
2015-12-13T06:13:50.374Z,87.8
2015-12-13T06:14:50.331Z,87.5
2015-12-13T06:15:50.504Z,87
2015-12-13T06:16:50.211Z,88.1
2015-12-13T06:17:50.150Z,87.3
2015-12-13T06:18:50.107Z,87.7
2015-12-13T06:19:50.047Z,87.5
2015-12-13T06:20:49.987Z,86.9
2015-12-13T06:21:49.928Z,87.1
2015-12-13T06:22:49.884Z,86.3
2015-12-13T06:23:49.824Z,86.5
2015-12-13T06:24:49.779Z,86.7
2015-12-13T06:25:49.720Z,86.8
2015-12-13T06:26:49.657Z,85.1
2015-12-13T06:27:49.598Z,84.6
2015-12-13T06:28:49.787Z,85.1
2015-12-13T06:29:49.494Z,85.4
2015-12-13T06:30:49.449Z,85.7
2015-12-13T06:31:49.374Z,85.9
2015-12-13T06:32:49.330Z,86.1
2015-12-13T06:33:49.286Z,86.5
2015-12-13T06:34:49.225Z,87.1
2015-12-13T06:35:49.167Z,87
2015-12-13T06:36:49.106Z,87.2
2015-12-13T06:37:49.047Z,87.4
2015-12-13T06:38:48.987Z,87.5
2015-12-13T06:39:48.942Z,87.6
2015-12-13T06:40:48.884Z,87.5
2015-12-13T06:41:48.822Z,88.3
2015-12-13T06:42:48.764Z,87.9
2015-12-13T06:43:48.720Z,88.2
2015-12-13T06:44:48.660Z,88.5
2015-12-13T06:45:48.616Z,88.7
2015-12-13T06:46:48.540Z,89
2015-12-13T06:47:48.496Z,89
2015-12-13T06:48:48.437Z,89.5
2015-12-13T06:49:48.392Z,89.5
2015-12-13T06:50:48.333Z,90
2015-12-13T06:51:48.273Z,90.4
2015-12-13T06:52:48.213Z,90.8
2015-12-13T06:53:48.169Z,90.9
2015-12-13T06:54:48.109Z,91.1
2015-12-13T06:55:48.066Z,91.4
2015-12-13T06:56:48.005Z,90.5
2015-12-13T06:57:47.946Z,90.6
2015-12-13T06:58:47.886Z,89.9
2015-12-13T06:59:47.827Z,88.7
2015-12-13T07:00:47.782Z,88.2
2015-12-13T07:01:47.739Z,87.6
2015-12-13T07:02:47.663Z,87.8
2015-12-13T07:03:47.603Z,88.6
2015-12-13T07:04:47.558Z,88.5
2015-12-13T07:05:47.499Z,87.8
2015-12-13T07:06:47.452Z,88.3
2015-12-13T07:07:47.392Z,88.3
2015-12-13T07:08:47.333Z,89
2015-12-13T07:09:47.272Z,88.9
2015-12-13T07:10:47.213Z,90
2015-12-13T07:11:47.169Z,90.2
2015-12-13T07:12:47.109Z,89.7
2015-12-13T07:13:47.049Z,90.2
2015-12-13T07:14:46.990Z,90.2
2015-12-13T07:15:46.930Z,90.3
2015-12-13T07:16:46.871Z,90.5
2015-12-13T07:17:46.826Z,90.9
2015-12-13T07:18:46.751Z,91.1
2015-12-13T07:19:46.722Z,91.3
2015-12-13T07:20:46.662Z,90.9
2015-12-13T07:21:46.602Z,91.4
2015-12-13T07:22:46.543Z,91.5
2015-12-13T07:23:46.483Z,90.8
2015-12-13T07:24:46.439Z,91.4
2015-12-13T07:25:46.380Z,91.1
2015-12-13T07:26:46.335Z,91.2
2015-12-13T07:27:46.276Z,91.1
2015-12-13T07:28:46.199Z,91.2
2015-12-13T07:29:46.203Z,91
2015-12-13T07:30:46.346Z,90.5
2015-12-13T07:31:46.052Z,90.4
2015-12-13T07:32:45.993Z,90.7
2015-12-13T07:33:45.932Z,89.6
2015-12-13T07:34:45.874Z,90.7
2015-12-13T07:35:45.813Z,90.1
2015-12-13T07:36:45.769Z,89.8
2015-12-13T07:37:45.710Z,88.4
2015-12-13T07:38:45.634Z,87.3
2015-12-13T07:39:45.590Z,86.7
2015-12-13T07:40:45.530Z,85.7
2015-12-13T07:41:45.470Z,86.4
2015-12-13T07:42:45.410Z,86.5
2015-12-13T07:43:45.460Z,85.9
2015-12-13T07:44:45.323Z,86.7
2015-12-13T07:45:45.244Z,87.3
2015-12-13T07:46:45.185Z,86.9
2015-12-13T07:47:45.141Z,87
2015-12-13T07:48:45.081Z,87.2
2015-12-13T07:49:45.021Z,87.2
2015-12-13T07:50:45.195Z,87.5
2015-12-13T07:51:44.901Z,87.5
2015-12-13T07:52:44.842Z,88.1
2015-12-13T07:53:45.015Z,88.5
2015-12-13T07:54:44.738Z,88.5
2015-12-13T07:55:44.679Z,87.9
2015-12-13T07:56:44.618Z,88.7
2015-12-13T07:57:44.574Z,89.2
2015-12-13T07:58:44.507Z,89.6
2015-12-13T07:59:44.432Z,89.5
2015-12-13T08:00:44.356Z,89.7
2015-12-13T08:01:44.281Z,89.6
2015-12-13T08:02:44.222Z,89.7
2015-12-13T08:03:44.153Z,90.3
2015-12-13T08:04:44.072Z,90.3
2015-12-13T08:05:44.006Z,90.7
2015-12-13T08:06:43.957Z,91.3
2015-12-13T08:07:43.892Z,91.7
2015-12-13T08:08:43.829Z,90.2
2015-12-13T08:09:43.768Z,90.6
2015-12-13T08:10:43.722Z,89.3
2015-12-13T08:11:43.660Z,88.9
2015-12-13T08:12:43.598Z,89.3
2015-12-13T08:13:43.538Z,88.7
2015-12-13T08:14:43.477Z,89.2
2015-12-13T08:15:43.417Z,90
2015-12-13T08:16:43.371Z,90.4
2015-12-13T08:17:43.296Z,91.3
2015-12-13T08:18:43.251Z,90.6
2015-12-13T08:19:43.206Z,88.3
2015-12-13T08:20:43.131Z,88.9
2015-12-13T08:21:43.071Z,89.2
2015-12-13T08:22:43.026Z,88.2
2015-12-13T08:23:42.967Z,87.4
2015-12-13T08:24:42.922Z,88.2
2015-12-13T08:25:42.828Z,87.6
2015-12-13T08:26:42.784Z,86.5
2015-12-13T08:27:42.724Z,85.7
2015-12-13T08:28:42.681Z,86.1
2015-12-13T08:29:42.620Z,85.7
2015-12-13T08:30:42.560Z,86
2015-12-13T08:31:42.361Z,86.3
2015-12-13T08:32:42.441Z,86.4
2015-12-13T08:33:42.381Z,85.9
2015-12-13T08:34:42.338Z,87.4
2015-12-13T08:35:42.277Z,88.2
2015-12-13T08:36:42.219Z,88.5
2015-12-13T08:37:42.158Z,87.1
2015-12-13T08:38:42.099Z,86.5
2015-12-13T08:39:42.054Z,87.2
2015-12-13T08:40:41.979Z,87.4
2015-12-13T08:41:41.935Z,87.9
2015-12-13T08:42:41.875Z,87.1
2015-12-13T08:43:41.816Z,87.2
2015-12-13T08:44:41.756Z,87.5
2015-12-13T08:45:41.696Z,87.6
2015-12-13T08:46:40.902Z,87
2015-12-13T08:47:40.841Z,87.6
2015-12-13T08:48:41.532Z,88.1
2015-12-13T08:49:41.473Z,86.9
2015-12-13T08:50:41.428Z,87
2015-12-13T08:51:41.352Z,87.7
2015-12-13T08:52:41.293Z,87.5
2015-12-13T08:53:41.249Z,86.9
2015-12-13T08:54:41.189Z,86.5
2015-12-13T08:55:41.130Z,87.2
2015-12-13T08:56:41.070Z,86.6
2015-12-13T08:57:41.011Z,86
2015-12-13T08:58:41.185Z,85.1
2015-12-13T08:59:40.891Z,84.8
2015-12-13T09:00:40.847Z,83.3
2015-12-13T09:01:40.787Z,82.4
2015-12-13T09:02:40.727Z,83
2015-12-13T09:03:40.667Z,83.3
2015-12-13T09:04:40.604Z,83.3
2015-12-13T09:05:40.545Z,82.1
2015-12-13T09:06:40.501Z,81
2015-12-13T09:07:40.426Z,80.8
2015-12-13T09:08:40.382Z,81
2015-12-13T09:09:40.321Z,80.7
2015-12-13T09:10:40.262Z,81.1
2015-12-13T09:11:40.202Z,81.6
2015-12-13T09:12:40.142Z,82.2
2015-12-13T09:13:40.099Z,80.8
2015-12-13T09:14:40.023Z,81.8
2015-12-13T09:15:39.979Z,81.5
2015-12-13T09:16:39.919Z,81.6
2015-12-13T09:17:39.859Z,82.2
2015-12-13T09:18:39.799Z,82.8
2015-12-13T09:19:39.755Z,82.6
2015-12-13T09:20:39.696Z,83.3
2015-12-13T09:21:39.635Z,82.8
2015-12-13T09:22:39.576Z,83.1
2015-12-13T09:23:39.515Z,83.2
2015-12-13T09:24:39.457Z,83.2
2015-12-13T09:25:39.631Z,83.6
2015-12-13T09:26:39.354Z,83.2
2015-12-13T09:27:39.277Z,84.3
2015-12-13T09:28:39.234Z,84.8
2015-12-13T09:29:39.158Z,84.6
2015-12-13T09:30:39.115Z,83.9
2015-12-13T09:31:39.070Z,83.4
2015-12-13T09:32:39.009Z,83.7
2015-12-13T09:33:38.934Z,84.6
2015-12-13T09:34:38.890Z,84.2
2015-12-13T09:35:38.831Z,84.8
2015-12-13T09:36:38.771Z,84.8
2015-12-13T09:37:38.711Z,84.8
2015-12-13T09:38:38.651Z,85.4
2015-12-13T09:39:38.607Z,85.3
2015-12-13T09:40:38.548Z,84.5
2015-12-13T09:41:38.504Z,84.6
2015-12-13T09:42:38.429Z,85.1
2015-12-13T09:43:38.368Z,86.2
2015-12-13T09:44:38.309Z,86.9
2015-12-13T09:45:38.265Z,87.1
2015-12-13T09:46:38.221Z,87
2015-12-13T09:47:38.143Z,87
2015-12-13T09:48:38.332Z,87.5
2015-12-13T09:49:38.023Z,88
2015-12-13T09:50:37.994Z,87.9
2015-12-13T09:51:37.919Z,87.4
2015-12-13T09:52:37.859Z,86.9
2015-12-13T09:53:37.800Z,86.9
2015-12-13T09:54:37.740Z,87
2015-12-13T09:55:37.695Z,86.4
2015-12-13T09:56:37.870Z,86.3
2015-12-13T09:57:37.576Z,85.9
2015-12-13T09:58:37.517Z,86.4
2015-12-13T09:59:37.692Z,86.9
2015-12-13T10:00:37.412Z,87.5
2015-12-13T10:01:37.352Z,86.9
2015-12-13T10:02:37.293Z,86.6
2015-12-13T10:03:37.233Z,86.4
2015-12-13T10:04:37.408Z,86.3
2015-12-13T10:05:37.129Z,86.4
2015-12-13T10:06:37.069Z,86.7
2015-12-13T10:07:37.009Z,86.6
2015-12-13T10:08:36.950Z,87
2015-12-13T10:09:37.125Z,86.2
2015-12-13T10:10:36.831Z,86.1
2015-12-13T10:11:36.771Z,86.6
2015-12-13T10:12:36.728Z,85.3
2015-12-13T10:13:36.667Z,85.7
2015-12-13T10:14:36.608Z,86.3
2015-12-13T10:15:36.564Z,86.2
2015-12-13T10:16:36.503Z,86.8
2015-12-13T10:17:36.475Z,86.6
2015-12-13T10:18:36.383Z,86.5
2015-12-13T10:19:36.324Z,86.1
2015-12-13T10:20:36.264Z,86.1
2015-12-13T10:21:36.205Z,86.4
2015-12-13T10:22:36.161Z,86.1
2015-12-13T10:23:36.100Z,86.5
2015-12-13T10:24:36.041Z,86.8
2015-12-13T10:25:35.978Z,86.7
2015-12-13T10:26:35.919Z,87.8
2015-12-13T10:27:35.125Z,87.6
2015-12-13T10:28:36.034Z,87
2015-12-13T10:29:35.755Z,87.1
2015-12-13T10:30:35.695Z,87.7
2015-12-13T10:31:35.870Z,87.5
2015-12-13T10:32:35.592Z,87.3
2015-12-13T10:33:35.516Z,87.3
2015-12-13T10:34:35.472Z,88.1
2015-12-13T10:35:34.678Z,87.3
2015-12-13T10:36:35.353Z,87.2
2015-12-13T10:37:35.293Z,87.4
2015-12-13T10:38:35.233Z,87.3
2015-12-13T10:39:35.189Z,86.9
2015-12-13T10:40:35.130Z,87.8
2015-12-13T10:41:35.304Z,87.8
2015-12-13T10:42:35.025Z,87.7
2015-12-13T10:43:34.966Z,87.4
2015-12-13T10:44:34.906Z,87.9
2015-12-13T10:45:34.112Z,88.3
2015-12-13T10:46:34.786Z,88.1
2015-12-13T10:47:34.727Z,87.6
2015-12-13T10:48:34.667Z,87.7
2015-12-13T10:49:34.623Z,86.3
2015-12-13T10:50:34.563Z,86.4
2015-12-13T10:51:34.503Z,85.9
2015-12-13T10:52:34.444Z,87.1
2015-12-13T10:53:34.228Z,86.5
2015-12-13T10:54:34.324Z,87.4
2015-12-13T10:55:34.280Z,86.9
2015-12-13T10:56:34.221Z,87.4
2015-12-13T10:57:34.177Z,87.6
2015-12-13T10:58:34.101Z,87.4
2015-12-13T10:59:34.041Z,87.1
2015-12-13T11:00:33.997Z,86.6
2015-12-13T11:01:33.938Z,86.2
2015-12-13T11:02:33.877Z,86.6
2015-12-13T11:03:33.818Z,87.2
2015-12-13T11:04:33.774Z,87.1
2015-12-13T11:05:33.698Z,86.7
2015-12-13T11:06:33.654Z,87.4
2015-12-13T11:07:33.591Z,87.2
2015-12-13T11:08:33.532Z,86.8
2015-12-13T11:09:33.472Z,87.4
2015-12-13T11:10:33.427Z,87.6
2015-12-13T11:11:33.368Z,87.4
2015-12-13T11:12:33.308Z,86.6
2015-12-13T11:13:33.249Z,86.9
2015-12-13T11:14:33.189Z,86.3
2015-12-13T11:15:33.129Z,86.5
2015-12-13T11:16:33.069Z,86.5
2015-12-13T11:17:33.010Z,85.5
2015-12-13T11:18:32.965Z,85.5
2015-12-13T11:19:32.906Z,85.4
2015-12-13T11:20:32.846Z,85.9
2015-12-13T11:21:32.802Z,85.8
2015-12-13T11:22:32.743Z,85.7
2015-12-13T11:23:32.917Z,85.3
2015-12-13T11:24:32.623Z,86.1
2015-12-13T11:25:32.563Z,86.1
2015-12-13T11:26:32.503Z,86.9
2015-12-13T11:27:32.678Z,86
2015-12-13T11:28:32.384Z,86.4
2015-12-13T11:29:32.324Z,87.5
2015-12-13T11:30:32.279Z,86.6
2015-12-13T11:31:32.220Z,87.2
2015-12-13T11:32:32.161Z,87.3
2015-12-13T11:33:32.116Z,87.6
2015-12-13T11:34:32.041Z,88
2015-12-13T11:35:31.996Z,88.2
2015-12-13T11:36:31.937Z,87.2
2015-12-13T11:37:32.112Z,86.6
2015-12-13T11:38:31.818Z,87.5
2015-12-13T11:39:31.757Z,87.5
2015-12-13T11:40:31.715Z,87.6
2015-12-13T11:41:31.654Z,87.7
2015-12-13T11:42:31.594Z,88
2015-12-13T11:43:31.768Z,87.8
2015-12-13T11:44:31.472Z,88
2015-12-13T11:45:31.428Z,87.6
2015-12-13T11:46:31.368Z,87.9
2015-12-13T11:47:31.309Z,87.9
2015-12-13T11:48:31.248Z,87.5
2015-12-13T11:49:31.189Z,87.4
2015-12-13T11:50:31.129Z,87.8
2015-12-13T11:51:31.084Z,87.6
2015-12-13T11:52:31.026Z,87.8
2015-12-13T11:53:30.966Z,87.9
2015-12-13T11:54:30.921Z,88.2
2015-12-13T11:55:30.862Z,88.3
2015-12-13T11:56:30.802Z,88.5
2015-12-13T11:57:30.742Z,88.1
2015-12-13T11:58:30.682Z,88.2
2015-12-13T11:59:30.623Z,88.8
2015-12-13T12:00:30.595Z,88.8
2015-12-13T12:01:30.754Z,89.1
2015-12-13T12:02:30.459Z,88.2
2015-12-13T12:03:30.400Z,88.8
2015-12-13T12:04:30.355Z,89.1
2015-12-13T12:05:30.295Z,89.5
2015-12-13T12:06:30.221Z,89.3
2015-12-13T12:07:30.176Z,88.8
2015-12-13T12:08:30.117Z,89.1
2015-12-13T12:09:30.087Z,89.6
2015-12-13T12:10:30.012Z,89.6
2015-12-13T12:11:29.968Z,89.3
2015-12-13T12:12:29.893Z,89.1
2015-12-13T12:13:29.834Z,89.1
2015-12-13T12:14:29.790Z,88.7
2015-12-13T12:15:29.730Z,88.8
2015-12-13T12:16:29.670Z,88.7
2015-12-13T12:17:29.642Z,88.6
2015-12-13T12:18:29.550Z,89
2015-12-13T12:19:29.506Z,88.7
2015-12-13T12:20:29.447Z,88.9
2015-12-13T12:21:29.403Z,88.9
2015-12-13T12:22:29.340Z,88.7
2015-12-13T12:23:29.280Z,88.2
2015-12-13T12:24:29.220Z,87.4
2015-12-13T12:25:29.160Z,84.2
2015-12-13T12:26:29.116Z,77.1
2015-12-13T12:27:29.259Z,75.3
2015-12-13T12:28:29.200Z,75.2
2015-12-13T12:29:28.936Z,76.8
2015-12-13T12:30:28.909Z,77
2015-12-13T12:31:28.850Z,76.1
2015-12-13T12:32:28.789Z,73.3
2015-12-13T12:33:28.730Z,70.8
2015-12-13T12:34:28.670Z,69.8
2015-12-13T12:35:28.626Z,69.3
2015-12-13T12:36:28.581Z,69.8
2015-12-13T12:37:28.521Z,71.2
2015-12-13T12:38:28.478Z,73.3
2015-12-13T12:39:28.636Z,74.4
2015-12-13T12:40:28.359Z,73.8
2015-12-13T12:41:28.298Z,71.3
2015-12-13T12:42:28.255Z,67.7
2015-12-13T12:43:28.211Z,64.7
2015-12-13T12:44:28.135Z,65.5
2015-12-13T12:45:28.309Z,64.9
2015-12-13T12:46:28.031Z,68.4
2015-12-13T12:47:27.972Z,72
2015-12-13T12:48:27.927Z,74.3
2015-12-13T12:49:27.867Z,74.9
2015-12-13T12:50:27.823Z,76.7
2015-12-13T12:51:27.764Z,77.8
2015-12-13T12:52:27.703Z,78.8
2015-12-13T12:53:27.660Z,78.8
2015-12-13T12:54:27.600Z,78.5
2015-12-13T12:55:27.540Z,77.5
2015-12-13T12:56:27.714Z,77.4
2015-12-13T12:57:27.655Z,77.5
2015-12-13T12:58:27.439Z,78.8
2015-12-13T12:59:27.347Z,79
2015-12-13T13:00:27.238Z,79
2015-12-13T13:01:27.194Z,80.2
2015-12-13T13:02:27.135Z,80.5
2015-12-13T13:03:27.091Z,80.3
2015-12-13T13:04:27.030Z,81.5
2015-12-13T13:05:30.175Z,81.7
2015-12-13T13:06:26.927Z,81.2
2015-12-13T13:07:26.851Z,80.8
2015-12-13T13:08:26.807Z,81.4
2015-12-13T13:09:26.748Z,81.6
2015-12-13T13:10:27.063Z,81.2
2015-12-13T13:11:26.628Z,81.6
2015-12-13T13:12:26.569Z,81.3
2015-12-13T13:13:26.524Z,81.5
2015-12-13T13:14:26.466Z,81.8
2015-12-13T13:15:26.404Z,82
2015-12-13T13:16:26.580Z,81.4
2015-12-13T13:17:26.285Z,80.9
2015-12-13T13:18:26.289Z,80.6
2015-12-13T13:19:26.182Z,80.6
2015-12-13T13:20:26.122Z,80.9
2015-12-13T13:21:26.062Z,81.3